Aviation Digital Data Service (ADDS)

Output produced by TAFs form (1512 UTC 04 March 2015)
found at http://www.aviationweather.gov/adds/tafs/
 
KPSF 041336Z 0414/0512 24008KT P6SM BKN012 OVC016 
     TEMPO 0414/0415 OVC009 
     FM041500 27013G23KT P6SM SCT025 BKN050 OVC250 
     FM041800 28010G20KT P6SM SCT050 SCT100 BKN250 
     FM042300 29010G18KT P6SM BKN050 BKN100 BKN250 
     FM050600 30010KT 4SM -SN BKN025 OVC050